Time;durP1;ratioP1;P1;durP2;ratioP2;P2;SDS_P1;SDS_P2;PMS_P1;PMS_P2;Temp;Humidity;BMP_temperature;BMP_pressure;BME280_temperature;BME280_humidity;BME280_pressure;Samples;Min_cycle;Max_cycle;Signal;HPM_P1;HPM_P2
2021/06/16 00:01:37;;;;;;;6.40;1.90;;;19.00;74.20;;;;;;5055782;28;20080;-71
2021/06/16 00:04:05;;;;;;;7.07;1.92;;;18.90;74.20;;;;;;5055062;28;20083;-71
2021/06/16 00:06:34;;;;;;;5.75;1.60;;;18.90;74.30;;;;;;5035726;28;20095;-71
2021/06/16 00:09:02;;;;;;;5.43;2.13;;;18.80;74.30;;;;;;5057976;28;20091;-71
2021/06/16 00:11:28;;;;;;;8.57;1.98;;;18.80;74.40;;;;;;5051381;28;20124;-71
2021/06/16 00:13:55;;;;;;;6.40;1.77;;;18.80;74.40;;;;;;5060827;28;20079;-71
2021/06/16 00:16:22;;;;;;;5.43;1.98;;;18.80;74.50;;;;;;5061027;28;20146;-71
2021/06/16 00:18:49;;;;;;;10.57;1.80;;;18.80;74.50;;;;;;5048461;28;20079;-71
2021/06/16 00:21:20;;;;;;;9.02;1.88;;;18.80;74.60;;;;;;5049977;28;20080;-70
2021/06/16 00:23:49;;;;;;;5.28;1.48;;;18.70;74.60;;;;;;5057968;28;20106;-70
2021/06/16 00:26:16;;;;;;;5.22;1.58;;;18.70;74.70;;;;;;5063492;28;20059;-71
2021/06/16 00:28:44;;;;;;;4.67;1.43;;;18.70;74.80;;;;;;5056785;28;20137;-71
2021/06/16 00:31:17;;;;;;;7.13;1.75;;;18.60;74.80;;;;;;5036499;28;20079;-71
2021/06/16 00:33:43;;;;;;;5.38;1.92;;;18.60;75.00;;;;;;5053389;28;20361;-71
2021/06/16 00:36:10;;;;;;;5.68;1.90;;;18.50;75.00;;;;;;5055730;28;20121;-71
2021/06/16 00:38:37;;;;;;;6.22;1.98;;;18.50;75.20;;;;;;5044900;28;20076;-71
2021/06/16 00:41:04;;;;;;;7.18;1.85;;;18.40;75.20;;;;;;5058530;28;20092;-71
2021/06/16 00:43:30;;;;;;;7.25;1.80;;;18.40;75.30;;;;;;5054320;28;20128;-71
2021/06/16 00:45:57;;;;;;;4.15;1.60;;;18.40;75.40;;;;;;5055567;28;20494;-71
2021/06/16 00:48:24;;;;;;;5.65;1.75;;;18.30;75.40;;;;;;5050758;28;20073;-71
2021/06/16 00:50:51;;;;;;;7.40;2.05;;;18.30;75.50;;;;;;5044847;28;20080;-71
2021/06/16 00:53:18;;;;;;;7.10;1.95;;;18.30;75.70;;;;;;5051800;28;20072;-71
2021/06/16 00:55:45;;;;;;;4.95;2.03;;;18.20;75.70;;;;;;5059405;28;20083;-71
2021/06/16 00:58:12;;;;;;;5.93;1.95;;;18.20;75.90;;;;;;5036182;28;20101;-70
2021/06/16 01:00:47;;;;;;;6.10;1.70;;;18.20;76.10;;;;;;5050555;28;20432;-71
2021/06/16 01:03:21;;;;;;;6.40;2.40;;;18.10;76.10;;;;;;5033572;28;20053;-71
2021/06/16 01:05:56;;;;;;;6.00;1.70;;;18.10;76.10;;;;;;5057876;28;20136;-71
2021/06/16 01:08:28;;;;;;;6.18;1.75;;;18.00;76.10;;;;;;5046714;28;20080;-71
2021/06/16 01:10:58;;;;;;;6.82;1.88;;;18.00;76.20;;;;;;5037619;28;20531;-70
2021/06/16 01:13:53;;;;;;;6.53;1.92;;;18.00;76.10;;;;;;5052121;28;20428;-70
2021/06/16 01:16:36;;;;;;;4.22;1.55;;;18.00;76.30;;;;;;5048348;28;20089;-71
2021/06/16 01:19:34;;;;;;;5.35;1.75;;;18.00;76.20;;;;;;5049761;28;20143;-71
2021/06/16 01:22:04;;;;;;;;;;;18.00;76.40;;;;;;5055141;28;20128;-70
2021/06/16 01:24:31;;;;;;;4.93;1.38;;;18.00;76.50;;;;;;5057689;28;20298;-71
2021/06/16 01:27:00;;;;;;;7.53;1.50;;;17.90;75.90;;;;;;5035991;28;20124;-70
2021/06/16 01:29:36;;;;;;;6.82;1.65;;;17.90;76.00;;;;;;5050550;28;20477;-70
2021/06/16 01:32:05;;;;;;;5.95;1.85;;;17.80;76.10;;;;;;5050118;28;20127;-70
2021/06/16 01:34:32;;;;;;;3.55;1.30;;;17.80;76.30;;;;;;5039708;28;20053;-70
2021/06/16 01:36:59;;;;;;;6.75;1.52;;;17.60;76.30;;;;;;5049997;28;20158;-70
2021/06/16 01:39:32;;;;;;;5.18;1.40;;;17.60;76.60;;;;;;5041687;28;20080;-70
2021/06/16 01:42:04;;;;;;;3.83;1.33;;;17.50;76.60;;;;;;5031478;28;20103;-71
2021/06/16 01:44:32;;;;;;;5.05;1.50;;;17.50;76.70;;;;;;5038389;28;20072;-71
2021/06/16 01:47:00;;;;;;;7.15;1.60;;;17.40;76.70;;;;;;5046349;28;20090;-71
2021/06/16 01:49:28;;;;;;;;;;;17.40;76.90;;;;;;5051370;28;20045;-70
2021/06/16 01:51:56;;;;;;;4.75;1.50;;;17.30;77.10;;;;;;5033873;28;20325;-70
2021/06/16 01:54:48;;;;;;;;;;;17.30;76.60;;;;;;5054340;28;20497;-70
2021/06/16 01:57:16;;;;;;;3.95;1.30;;;17.30;76.60;;;;;;5053667;28;19972;-71
2021/06/16 01:59:43;;;;;;;3.53;1.48;;;17.30;76.50;;;;;;5060677;28;20175;-70
2021/06/16 02:02:10;;;;;;;5.72;1.60;;;17.30;76.80;;;;;;5056227;28;20090;-70
2021/06/16 02:04:37;;;;;;;4.13;1.58;;;17.20;76.80;;;;;;5061057;28;20129;-70
2021/06/16 02:07:08;;;;;;;4.53;1.67;;;17.10;77.00;;;;;;5066020;28;20049;-71
2021/06/16 02:09:38;;;;;;;4.15;1.63;;;17.10;77.20;;;;;;5062036;28;20099;-70
2021/06/16 02:12:08;;;;;;;6.35;1.83;;;17.10;77.40;;;;;;5054827;28;20483;-71
2021/06/16 02:14:35;;;;;;;4.35;1.30;;;17.00;77.40;;;;;;5060370;28;20076;-70
2021/06/16 02:17:08;;;;;;;3.67;1.40;;;17.00;77.50;;;;;;5052561;28;20128;-70
2021/06/16 02:19:37;;;;;;;7.80;1.40;;;17.00;77.60;;;;;;5068446;28;20457;-70
2021/06/16 02:22:05;;;;;;;5.20;1.63;;;16.90;77.80;;;;;;5038295;28;20500;-71
2021/06/16 02:24:33;;;;;;;6.47;1.63;;;16.90;77.80;;;;;;5061225;28;20198;-71
2021/06/16 02:27:00;;;;;;;7.07;1.80;;;16.90;77.90;;;;;;5058290;28;20124;-71
2021/06/16 02:29:29;;;;;;;3.00;1.40;;;16.90;77.90;;;;;;5038243;28;20049;-71
2021/06/16 02:31:56;;;;;;;3.78;1.52;;;16.90;78.00;;;;;;5053999;28;20085;-70
2021/06/16 02:34:25;;;;;;;3.70;1.38;;;16.90;78.00;;;;;;5061164;28;20052;-71
2021/06/16 02:36:57;;;;;;;7.47;1.80;;;16.90;78.20;;;;;;5038974;28;20461;-70
2021/06/16 02:39:31;;;;;;;6.00;1.55;;;16.90;78.20;;;;;;5045228;28;20207;-70
2021/06/16 02:41:59;;;;;;;3.60;1.60;;;16.90;78.30;;;;;;5033971;28;20041;-70
2021/06/16 02:44:27;;;;;;;4.13;1.60;;;16.90;78.30;;;;;;5036125;28;20044;-71
2021/06/16 02:46:55;;;;;;;3.70;1.60;;;16.90;78.40;;;;;;5039175;28;20120;-71
2021/06/16 02:49:29;;;;;;;;;;;16.80;78.50;;;;;;5056627;28;20052;-71
2021/06/16 02:52:01;;;;;;;4.18;1.80;;;16.80;78.50;;;;;;5059060;28;19975;-71
2021/06/16 02:54:30;;;;;;;6.75;1.70;;;16.80;78.30;;;;;;5040273;28;20068;-71
2021/06/16 02:57:00;;;;;;;6.05;1.70;;;16.70;78.50;;;;;;5034333;28;20072;-71
2021/06/16 02:59:30;;;;;;;3.50;1.40;;;16.70;78.50;;;;;;5038938;28;20044;-70
2021/06/16 03:01:57;;;;;;;4.13;1.50;;;16.70;78.70;;;;;;5052632;28;20076;-71
2021/06/16 03:04:25;;;;;;;5.43;1.83;;;16.60;78.80;;;;;;5056055;28;20128;-71
2021/06/16 03:06:53;;;;;;;;;;;16.60;79.00;;;;;;5059819;28;20126;-70
2021/06/16 03:09:22;;;;;;;;;;;16.50;78.80;;;;;;5059330;28;19920;-71
2021/06/16 03:11:51;;;;;;;5.65;1.65;;;16.50;78.50;;;;;;5052267;28;20316;-71
2021/06/16 03:14:24;;;;;;;3.38;1.70;;;16.40;78.30;;;;;;5060550;28;20079;-70
2021/06/16 03:16:52;;;;;;;5.45;1.60;;;16.40;78.50;;;;;;5052466;28;20053;-70
2021/06/16 03:19:23;;;;;;;8.00;1.80;;;16.40;79.20;;;;;;5056804;28;20518;-70
2021/06/16 03:21:52;;;;;;;4.53;1.52;;;16.30;78.60;;;;;;5032586;28;20399;-70
2021/06/16 03:24:21;;;;;;;5.13;1.70;;;16.30;78.80;;;;;;5051273;28;20072;-70
2021/06/16 03:26:49;;;;;;;6.82;1.45;;;16.30;78.80;;;;;;5061624;28;20416;-71
2021/06/16 03:29:30;;;;;;;5.85;1.73;;;16.30;79.00;;;;;;5054304;28;20137;-70
2021/06/16 03:31:59;;;;;;;5.00;1.70;;;16.20;79.00;;;;;;5051196;28;20441;-70
2021/06/16 03:34:26;;;;;;;4.10;1.38;;;16.20;79.20;;;;;;5052154;28;20114;-72
2021/06/16 03:36:54;;;;;;;4.85;1.70;;;16.10;79.20;;;;;;5053946;28;20464;-71
2021/06/16 03:39:22;;;;;;;4.32;1.70;;;16.10;79.40;;;;;;5049088;28;20382;-71
2021/06/16 03:41:49;;;;;;;4.82;1.73;;;16.00;79.30;;;;;;5057142;28;20152;-70
2021/06/16 03:44:16;;;;;;;6.57;1.80;;;16.10;79.60;;;;;;5056381;28;20045;-71
2021/06/16 03:46:43;;;;;;;4.80;1.70;;;16.00;79.60;;;;;;5024877;28;20045;-70
2021/06/16 03:49:13;;;;;;;4.78;1.55;;;16.00;79.80;;;;;;5048092;28;20049;-70
2021/06/16 03:51:42;;;;;;;5.82;1.50;;;16.00;80.00;;;;;;5048529;28;20041;-71
2021/06/16 03:54:11;;;;;;;5.30;2.25;;;16.00;80.10;;;;;;5034641;28;20110;-71
2021/06/16 03:56:40;;;;;;;5.68;1.73;;;16.00;80.30;;;;;;5048953;28;20083;-71
2021/06/16 03:59:07;;;;;;;5.28;1.70;;;16.00;80.40;;;;;;5050240;28;20132;-71
2021/06/16 04:01:37;;;;;;;3.80;1.55;;;16.10;80.70;;;;;;5052938;28;20049;-71
2021/06/16 04:04:09;;;;;;;6.03;1.80;;;16.10;80.70;;;;;;5048023;28;20050;-71
2021/06/16 04:06:37;;;;;;;4.45;1.73;;;16.20;81.10;;;;;;5056586;28;20079;-70
2021/06/16 04:09:04;;;;;;;5.25;2.00;;;16.20;81.10;;;;;;5053992;28;20080;-71
2021/06/16 04:11:32;;;;;;;3.55;1.50;;;16.30;81.30;;;;;;5054192;28;20083;-71
2021/06/16 04:13:59;;;;;;;5.43;1.80;;;16.40;81.40;;;;;;5055346;28;20492;-71
2021/06/16 04:16:27;;;;;;;4.38;1.90;;;16.50;81.70;;;;;;5039913;28;20045;-72
2021/06/16 04:18:54;;;;;;;3.33;1.75;;;16.60;81.80;;;;;;5038618;28;20159;-70
2021/06/16 04:21:22;;;;;;;5.80;2.03;;;16.60;81.90;;;;;;5039128;28;20553;-70
2021/06/16 04:23:50;;;;;;;5.32;1.60;;;16.70;82.10;;;;;;5040727;28;20511;-70
2021/06/16 04:26:18;;;;;;;;;;;16.80;82.30;;;;;;5038942;28;20425;-70
2021/06/16 04:28:45;;;;;;;3.65;1.80;;;16.80;82.40;;;;;;5024719;28;20360;-71
2021/06/16 04:31:12;;;;;;;5.57;2.03;;;16.80;82.20;;;;;;5056322;28;20142;-71
2021/06/16 04:33:40;;;;;;;6.25;1.90;;;16.90;82.60;;;;;;5039698;28;20042;-71
2021/06/16 04:36:08;;;;;;;5.55;1.80;;;16.90;82.80;;;;;;5049905;28;20091;-71
2021/06/16 04:38:35;;;;;;;4.50;1.77;;;17.00;83.10;;;;;;5029622;28;20071;-70
2021/06/16 04:41:03;;;;;;;6.95;2.03;;;17.00;83.30;;;;;;5040217;28;20128;-70
2021/06/16 04:43:30;;;;;;;3.75;1.55;;;17.10;83.60;;;;;;5033360;28;20076;-70
2021/06/16 04:45:57;;;;;;;3.50;1.60;;;17.20;83.70;;;;;;5049928;28;20157;-71
2021/06/16 04:48:24;;;;;;;6.32;2.38;;;17.20;83.80;;;;;;5058295;28;20414;-71
2021/06/16 04:50:51;;;;;;;5.55;1.65;;;17.30;84.00;;;;;;5032911;28;20114;-70
2021/06/16 04:53:18;;;;;;;3.28;1.50;;;17.30;84.20;;;;;;5030745;28;20091;-70
2021/06/16 04:55:44;;;;;;;5.80;1.60;;;17.40;84.40;;;;;;5035945;28;20044;-71
2021/06/16 04:58:11;;;;;;;6.32;2.20;;;17.50;84.70;;;;;;5047840;28;20118;-71
2021/06/16 05:00:39;;;;;;;6.93;1.98;;;17.60;85.10;;;;;;5050511;28;20073;-71
2021/06/16 05:03:05;;;;;;;9.68;2.30;;;17.60;85.20;;;;;;5040195;28;20103;-72
2021/06/16 05:05:32;;;;;;;6.15;2.05;;;17.70;85.40;;;;;;5052563;28;20064;-71
2021/06/16 05:07:59;;;;;;;6.40;2.10;;;17.80;85.70;;;;;;5045007;28;20072;-71
2021/06/16 05:10:26;;;;;;;5.45;2.33;;;18.00;86.00;;;;;;5037041;28;20045;-71
2021/06/16 05:12:53;;;;;;;10.68;3.10;;;18.00;86.10;;;;;;5047908;28;20111;-73
2021/06/16 05:15:20;;;;;;;9.57;2.80;;;18.20;86.40;;;;;;5052708;28;20469;-71
2021/06/16 05:17:46;;;;;;;7.18;2.67;;;18.20;86.40;;;;;;5050034;28;20099;-72
2021/06/16 05:20:14;;;;;;;5.93;2.60;;;18.30;86.60;;;;;;5050993;28;20084;-71
2021/06/16 05:22:41;;;;;;;6.82;2.85;;;18.40;87.40;;;;;;5046681;28;20069;-71
2021/06/16 05:25:10;;;;;;;9.57;2.72;;;18.50;86.90;;;;;;5022899;28;20143;-71
2021/06/16 05:27:37;;;;;;;9.43;3.10;;;18.60;87.00;;;;;;5035926;28;20418;-71
2021/06/16 05:30:05;;;;;;;6.80;2.45;;;18.70;87.20;;;;;;5041473;28;20041;-71
2021/06/16 05:32:33;;;;;;;6.28;2.63;;;18.80;87.30;;;;;;5033044;28;20340;-71
2021/06/16 05:34:59;;;;;;;7.75;2.72;;;18.90;87.40;;;;;;5043947;28;20085;-71
2021/06/16 05:37:26;;;;;;;7.00;2.92;;;19.00;87.50;;;;;;5045230;28;20179;-71
2021/06/16 05:39:53;;;;;;;6.47;2.63;;;19.10;87.60;;;;;;5050101;28;20457;-71
2021/06/16 05:42:20;;;;;;;6.22;2.55;;;19.20;87.80;;;;;;5041047;28;20037;-72
2021/06/16 05:44:47;;;;;;;6.43;2.80;;;19.30;87.90;;;;;;5047847;28;20123;-72
2021/06/16 05:47:14;;;;;;;9.68;3.15;;;19.40;88.10;;;;;;5054939;28;20490;-71
2021/06/16 05:49:40;;;;;;;8.18;2.90;;;19.40;88.30;;;;;;5036004;28;20042;-71
2021/06/16 05:52:08;;;;;;;7.32;2.90;;;19.50;88.30;;;;;;5033010;28;20140;-72
2021/06/16 05:54:38;;;;;;;13.65;3.42;;;19.50;88.20;;;;;;5030344;28;20077;-72
2021/06/16 05:57:05;;;;;;;10.25;3.08;;;19.50;88.10;;;;;;5032768;28;20073;-73
2021/06/16 05:59:33;;;;;;;9.30;3.00;;;19.60;88.30;;;;;;5033181;28;20141;-71
2021/06/16 06:02:00;;;;;;;;;;;19.60;88.30;;;;;;5035756;28;20057;-71
2021/06/16 06:04:27;;;;;;;4.80;2.17;;;19.70;88.60;;;;;;5035192;28;20440;-71
2021/06/16 06:06:54;;;;;;;9.05;3.00;;;19.70;88.50;;;;;;5029846;28;20069;-71
2021/06/16 06:09:21;;;;;;;7.50;3.10;;;19.80;88.40;;;;;;5031094;28;20538;-71
2021/06/16 06:11:48;;;;;;;6.30;3.10;;;19.80;88.20;;;;;;5030501;28;20127;-71
2021/06/16 06:14:15;;;;;;;6.97;3.00;;;19.90;88.30;;;;;;5017957;28;20136;-72
2021/06/16 06:16:42;;;;;;;8.10;2.85;;;19.90;88.30;;;;;;5018608;28;20103;-71
2021/06/16 06:19:08;;;;;;;7.53;2.70;;;20.00;88.50;;;;;;5025096;28;20068;-71
2021/06/16 06:21:35;;;;;;;8.65;3.17;;;20.10;88.70;;;;;;5017935;28;20393;-72
2021/06/16 06:24:03;;;;;;;7.47;3.15;;;20.20;88.90;;;;;;5038884;28;20449;-71
2021/06/16 06:26:31;;;;;;;8.30;3.05;;;20.30;89.00;;;;;;5036444;28;20060;-72
2021/06/16 06:28:58;;;;;;;6.90;2.95;;;20.40;89.00;;;;;;5007041;28;20077;-71
2021/06/16 06:31:25;;;;;;;7.68;3.53;;;20.40;89.00;;;;;;5031572;28;20107;-72
2021/06/16 06:33:52;;;;;;;8.27;3.73;;;20.50;89.10;;;;;;5019101;28;20057;-72
2021/06/16 06:36:19;;;;;;;11.10;4.15;;;20.60;89.10;;;;;;5034315;28;20080;-72
2021/06/16 06:38:47;;;;;;;8.50;3.42;;;20.70;89.20;;;;;;5036420;28;20539;-71
2021/06/16 06:41:15;;;;;;;9.40;3.13;;;20.70;89.20;;;;;;5031349;28;20471;-71
2021/06/16 06:43:45;;;;;;;5.80;2.67;;;20.80;89.30;;;;;;5035462;28;20041;-72
2021/06/16 06:46:12;;;;;;;8.57;3.40;;;20.90;89.40;;;;;;5032597;28;20111;-71
2021/06/16 06:48:39;;;;;;;6.93;2.73;;;21.00;89.40;;;;;;5033183;28;20050;-71
2021/06/16 06:51:08;;;;;;;9.83;3.27;;;21.10;89.40;;;;;;5032278;28;20335;-72
2021/06/16 06:53:35;;;;;;;9.98;2.90;;;21.10;89.20;;;;;;5034694;28;20057;-72
2021/06/16 06:56:02;;;;;;;11.73;3.13;;;21.20;89.20;;;;;;5034309;28;20065;-72
2021/06/16 06:58:29;;;;;;;7.38;2.50;;;21.30;89.20;;;;;;5031387;28;20107;-72
2021/06/16 07:00:56;;;;;;;7.15;3.08;;;21.40;89.40;;;;;;5032757;28;20076;-73
2021/06/16 07:03:23;;;;;;;6.25;2.63;;;21.50;89.40;;;;;;5026387;28;20080;-72
2021/06/16 07:05:50;;;;;;;8.32;2.80;;;21.60;89.30;;;;;;5037616;28;20056;-72
2021/06/16 07:08:17;;;;;;;11.63;3.13;;;21.70;89.00;;;;;;5039759;28;20073;-72
2021/06/16 07:10:43;;;;;;;7.82;2.95;;;21.70;88.80;;;;;;5030672;28;20132;-72
2021/06/16 07:13:10;;;;;;;7.30;2.53;;;21.80;88.40;;;;;;5034585;28;20084;-72
2021/06/16 07:15:37;;;;;;;5.45;2.45;;;21.80;88.90;;;;;;5034793;28;20672;-72
2021/06/16 07:18:04;;;;;;;11.25;2.55;;;21.90;89.00;;;;;;5033902;28;20104;-72
2021/06/16 07:20:31;;;;;;;10.05;3.45;;;22.00;88.90;;;;;;5034884;28;20076;-73
2021/06/16 07:22:58;;;;;;;8.52;3.05;;;22.10;88.70;;;;;;5032043;28;20132;-73
2021/06/16 07:25:25;;;;;;;6.30;2.28;;;22.10;88.50;;;;;;5033207;28;20069;-72
2021/06/16 07:27:52;;;;;;;8.32;2.90;;;22.20;88.60;;;;;;5036650;28;20135;-72
2021/06/16 07:30:19;;;;;;;5.45;2.10;;;22.30;88.60;;;;;;5048660;28;20044;-72
2021/06/16 07:32:46;;;;;;;5.85;2.70;;;22.40;88.80;;;;;;5033943;28;20085;-71
2021/06/16 07:35:14;;;;;;;6.38;2.10;;;22.50;88.50;;;;;;5026160;28;20072;-71
2021/06/16 07:37:42;;;;;;;5.05;2.42;;;22.50;89.00;;;;;;5032935;28;20477;-72
2021/06/16 07:40:10;;;;;;;6.68;2.20;;;22.60;88.50;;;;;;5014414;28;20065;-71
2021/06/16 07:42:39;;;;;;;4.60;2.03;;;22.70;88.40;;;;;;5032508;28;20140;-71
2021/06/16 07:45:07;;;;;;;4.90;1.90;;;22.80;88.30;;;;;;5024247;28;20080;-72
2021/06/16 07:47:34;;;;;;;6.25;1.92;;;22.90;88.00;;;;;;5047081;28;20088;-71
2021/06/16 07:50:01;;;;;;;6.60;2.20;;;23.00;88.20;;;;;;5036451;28;20049;-71
2021/06/16 07:52:28;;;;;;;5.57;2.10;;;23.00;87.10;;;;;;5034454;28;20148;-72
2021/06/16 07:54:55;;;;;;;5.25;2.10;;;23.10;86.10;;;;;;5047447;28;20139;-72
2021/06/16 07:57:22;;;;;;;7.30;2.20;;;23.10;84.70;;;;;;5045421;28;20254;-72
2021/06/16 07:59:49;;;;;;;4.75;2.20;;;23.20;86.40;;;;;;5032957;28;20057;-71
2021/06/16 08:02:17;;;;;;;5.82;2.00;;;23.20;86.40;;;;;;5020388;28;20049;-71
2021/06/16 08:04:44;;;;;;;8.77;2.53;;;23.20;86.80;;;;;;5032117;28;20528;-71
2021/06/16 08:07:11;;;;;;;5.18;2.60;;;23.30;87.00;;;;;;5010780;28;20132;-71
2021/06/16 08:09:42;;;;;;;3.97;1.90;;;23.40;85.90;;;;;;5029163;28;20041;-72
2021/06/16 08:12:13;;;;;;;3.58;2.10;;;23.40;86.20;;;;;;5026385;28;20081;-71
2021/06/16 08:14:41;;;;;;;6.53;2.40;;;23.50;84.50;;;;;;5028949;28;20092;-71
2021/06/16 08:17:08;;;;;;;;;;;23.50;85.50;;;;;;5045180;28;20088;-72
2021/06/16 08:19:36;;;;;;;4.70;2.42;;;23.50;81.90;;;;;;5034743;28;19924;-71
2021/06/16 08:22:04;;;;;;;6.28;2.17;;;23.50;85.00;;;;;;5048752;28;20473;-72
2021/06/16 08:24:31;;;;;;;6.60;2.60;;;23.60;85.10;;;;;;5031117;28;20144;-72
2021/06/16 08:26:58;;;;;;;5.45;2.30;;;23.60;84.80;;;;;;5033498;28;20077;-72
2021/06/16 08:29:24;;;;;;;5.53;2.17;;;23.70;85.40;;;;;;5031775;28;20072;-72
2021/06/16 08:31:51;;;;;;;3.63;2.15;;;23.80;85.50;;;;;;5019343;28;20195;-72
2021/06/16 08:34:18;;;;;;;7.22;2.72;;;23.80;83.60;;;;;;5024191;28;20470;-72
2021/06/16 08:36:46;;;;;;;6.38;2.50;;;23.80;84.30;;;;;;5028627;28;20144;-72
2021/06/16 08:39:19;;;;;;;9.77;3.25;;;23.80;85.00;;;;;;5030471;28;20042;-73
2021/06/16 08:41:47;;;;;;;;;;;23.80;84.50;;;;;;5031659;28;20139;-71
2021/06/16 08:44:14;;;;;;;6.30;2.80;;;23.80;84.70;;;;;;5014095;28;19963;-71
2021/06/16 08:46:41;;;;;;;;;;;23.90;84.10;;;;;;5031294;28;20060;-72
2021/06/16 08:49:09;;;;;;;5.03;2.60;;;23.90;83.60;;;;;;5027861;28;20369;-72
2021/06/16 08:51:36;;;;;;;5.30;2.90;;;23.90;85.00;;;;;;5027925;28;20136;-72
2021/06/16 08:54:05;;;;;;;4.30;2.38;;;24.00;84.90;;;;;;5048035;28;20076;-72
2021/06/16 08:56:32;;;;;;;6.20;3.10;;;24.00;85.40;;;;;;5028153;28;20049;-73
2021/06/16 08:58:59;;;;;;;8.70;2.78;;;24.10;85.20;;;;;;5027585;28;20087;-71
2021/06/16 09:01:27;;;;;;;8.52;2.78;;;24.20;85.20;;;;;;5032919;28;20057;-72
2021/06/16 09:03:54;;;;;;;5.75;2.53;;;24.20;85.40;;;;;;5030138;28;20145;-71
2021/06/16 09:06:28;;;;;;;4.87;2.73;;;24.30;85.70;;;;;;5030117;28;20079;-71
2021/06/16 09:09:05;;;;;;;4.85;2.30;;;24.40;86.00;;;;;;5033562;28;20080;-72
2021/06/16 09:11:38;;;;;;;8.68;2.90;;;24.50;86.00;;;;;;5031121;28;20127;-72
2021/06/16 09:14:13;;;;;;;5.85;2.95;;;24.50;85.40;;;;;;5028481;28;20050;-71
2021/06/16 09:16:41;;;;;;;4.40;2.33;;;24.60;85.70;;;;;;5028340;28;20053;-72
2021/06/16 09:19:21;;;;;;;;;;;24.70;85.90;;;;;;5031396;28;20096;-72
2021/06/16 09:21:49;;;;;;;6.05;3.03;;;24.70;85.60;;;;;;5028952;28;20308;-72
2021/06/16 09:24:17;;;;;;;7.40;2.80;;;24.80;86.10;;;;;;5009057;28;20048;-71
2021/06/16 09:26:44;;;;;;;5.28;2.80;;;24.80;86.00;;;;;;5027253;28;20506;-72
2021/06/16 09:29:11;;;;;;;6.35;3.00;;;24.80;85.20;;;;;;5025381;28;20068;-72
2021/06/16 09:31:43;;;;;;;6.72;3.05;;;24.90;85.90;;;;;;5028401;28;20103;-72
2021/06/16 09:34:18;;;;;;;5.78;2.50;;;25.00;85.70;;;;;;5029738;28;20057;-72
2021/06/16 09:36:52;;;;;;;5.82;2.40;;;25.00;85.80;;;;;;5046563;28;20053;-71
2021/06/16 09:39:24;;;;;;;4.82;3.00;;;25.10;84.70;;;;;;5027497;28;20155;-72
2021/06/16 09:41:56;;;;;;;6.97;3.22;;;25.10;84.60;;;;;;5046617;28;20102;-71
2021/06/16 09:44:50;;;;;;;6.75;3.67;;;25.10;83.50;;;;;;5049696;28;20615;-72
2021/06/16 09:47:20;;;;;;;4.97;2.63;;;25.00;83.00;;;;;;5023729;28;20072;-73
2021/06/16 09:50:00;;;;;;;9.35;3.67;;;25.10;85.10;;;;;;5031796;28;20060;-72
2021/06/16 09:52:40;;;;;;;7.97;3.10;;;25.10;85.00;;;;;;5015056;28;20126;-71
2021/06/16 09:55:22;;;;;;;5.32;2.83;;;25.20;84.00;;;;;;5028002;28;20449;-72
2021/06/16 09:58:01;;;;;;;7.00;3.67;;;25.20;83.90;;;;;;5026102;28;20141;-72
2021/06/16 10:00:36;;;;;;;6.50;3.25;;;25.20;82.50;;;;;;5032098;28;20429;-71
2021/06/16 10:03:20;;;;;;;8.85;3.65;;;25.20;84.10;;;;;;5026356;28;20057;-72
2021/06/16 10:06:06;;;;;;;6.85;3.00;;;25.20;83.60;;;;;;5033203;28;20076;-71
2021/06/16 10:08:35;;;;;;;6.93;3.95;;;25.20;84.10;;;;;;5028226;28;20045;-71
2021/06/16 10:11:05;;;;;;;6.85;3.28;;;25.30;84.00;;;;;;5025179;28;20286;-71
2021/06/16 10:13:33;;;;;;;6.82;3.13;;;25.30;84.00;;;;;;5027625;28;20118;-71
2021/06/16 10:16:01;;;;;;;4.97;2.67;;;25.40;84.60;;;;;;5042636;28;20135;-72
2021/06/16 10:18:28;;;;;;;;;;;25.40;85.50;;;;;;5030343;28;20126;-71
2021/06/16 10:20:57;;;;;;;6.40;3.15;;;25.40;81.40;;;;;;5033851;28;19983;-71
2021/06/16 10:23:24;;;;;;;5.90;2.97;;;25.50;83.40;;;;;;5015216;28;20076;-72
2021/06/16 10:25:58;;;;;;;5.10;2.85;;;25.50;83.10;;;;;;5013783;28;20069;-73
2021/06/16 10:29:00;;;;;;;5.88;2.80;;;25.60;84.00;;;;;;5030253;28;20045;-72
2021/06/16 10:31:37;;;;;;;4.63;2.70;;;25.60;83.80;;;;;;5030792;28;20079;-71
2021/06/16 10:34:04;;;;;;;6.13;2.88;;;25.70;84.10;;;;;;5026976;28;20081;-72
2021/06/16 10:36:32;;;;;;;6.07;2.60;;;25.70;83.70;;;;;;5031524;28;20148;-71
2021/06/16 10:38:59;;;;;;;6.03;2.60;;;25.80;84.00;;;;;;5032103;28;20823;-72
2021/06/16 10:41:40;;;;;;;6.50;2.80;;;25.80;84.10;;;;;;5028288;28;20045;-72
2021/06/16 10:44:27;;;;;;;5.47;2.80;;;25.90;84.40;;;;;;5032194;28;20037;-72
2021/06/16 10:47:02;;;;;;;6.32;2.88;;;26.00;84.10;;;;;;5040064;28;20103;-72
2021/06/16 10:49:50;;;;;;;7.07;2.83;;;26.00;83.80;;;;;;5028359;28;20088;-72
2021/06/16 10:52:18;;;;;;;5.43;3.00;;;26.10;83.50;;;;;;5047250;28;20477;-71
2021/06/16 10:55:05;;;;;;;6.93;3.40;;;26.10;83.60;;;;;;5034404;28;20516;-73
2021/06/16 10:57:33;;;;;;;7.38;4.05;;;26.10;83.50;;;;;;5034407;28;20156;-71
2021/06/16 11:00:05;;;;;;;7.70;4.00;;;26.10;82.80;;;;;;5035375;28;20048;-71
2021/06/16 11:02:32;;;;;;;6.50;4.18;;;26.10;82.80;;;;;;5033054;28;20044;-72
2021/06/16 11:05:22;;;;;;;8.38;4.38;;;26.10;83.50;;;;;;5030081;28;20076;-71
2021/06/16 11:07:50;;;;;;;7.68;4.10;;;26.20;83.40;;;;;;5035101;28;20045;-72
2021/06/16 11:10:17;;;;;;;7.28;4.90;;;26.20;83.80;;;;;;5029540;28;20052;-72
2021/06/16 11:12:46;;;;;;;7.97;4.40;;;26.30;83.90;;;;;;5031911;28;20050;-72
2021/06/16 11:15:25;;;;;;;7.28;4.13;;;26.30;84.00;;;;;;5034235;28;20408;-72
2021/06/16 11:17:53;;;;;;;11.82;6.07;;;26.30;84.20;;;;;;5023842;28;20060;-72
2021/06/16 11:20:24;;;;;;;9.07;4.95;;;26.40;84.10;;;;;;5036159;28;20049;-71
2021/06/16 11:22:59;;;;;;;9.25;5.72;;;26.30;82.40;;;;;;5032779;28;20046;-72
2021/06/16 11:25:37;;;;;;;9.35;5.18;;;26.30;83.50;;;;;;5034741;28;20182;-72
2021/06/16 11:28:20;;;;;;;8.75;4.97;;;26.30;83.90;;;;;;5031112;28;20084;-72
2021/06/16 11:30:53;;;;;;;8.10;5.10;;;26.30;84.20;;;;;;5030743;28;20052;-72
2021/06/16 11:33:27;;;;;;;10.52;4.60;;;26.40;84.40;;;;;;5029689;28;20124;-72
2021/06/16 11:36:11;;;;;;;9.95;5.43;;;26.50;84.40;;;;;;5042724;28;20049;-71
2021/06/16 11:38:41;;;;;;;7.60;4.28;;;26.50;84.20;;;;;;5032289;28;20076;-72
2021/06/16 11:41:14;;;;;;;11.35;5.40;;;26.50;84.20;;;;;;5029803;28;20109;-72
2021/06/16 11:43:52;;;;;;;9.07;5.32;;;26.50;83.70;;;;;;5047363;28;20048;-72
2021/06/16 11:46:33;;;;;;;9.40;5.53;;;26.50;83.80;;;;;;5031259;28;20085;-72
2021/06/16 11:49:08;;;;;;;8.45;4.32;;;26.60;83.00;;;;;;5032935;28;20243;-72
2021/06/16 11:51:42;;;;;;;6.63;4.45;;;26.60;83.90;;;;;;5034202;28;20460;-72
2021/06/16 11:54:24;;;;;;;6.82;4.13;;;26.70;84.30;;;;;;5031304;28;20114;-72
2021/06/16 11:57:07;;;;;;;10.00;5.22;;;26.70;84.90;;;;;;5033914;28;20049;-72
2021/06/16 11:59:37;;;;;;;8.10;4.82;;;26.80;84.10;;;;;;5033413;28;20044;-71
2021/06/16 12:02:06;;;;;;;7.97;4.75;;;26.80;84.10;;;;;;5009311;28;20107;-71
2021/06/16 12:05:06;;;;;;;10.75;5.68;;;26.80;83.80;;;;;;5029404;28;20197;-72
2021/06/16 12:07:45;;;;;;;7.90;4.65;;;26.70;82.10;;;;;;5029707;28;20044;-71
2021/06/16 12:10:21;;;;;;;9.85;5.03;;;26.70;83.50;;;;;;5029399;28;20052;-71
2021/06/16 12:13:06;;;;;;;10.27;5.65;;;26.80;83.70;;;;;;5028035;28;20145;-71
2021/06/16 12:15:35;;;;;;;6.85;4.55;;;26.80;83.50;;;;;;5014894;28;20127;-71
2021/06/16 12:18:11;;;;;;;7.32;3.78;;;26.80;83.80;;;;;;5030059;28;20053;-73
2021/06/16 12:20:42;;;;;;;7.35;4.10;;;26.90;84.40;;;;;;5031288;28;20057;-71
2021/06/16 12:23:22;;;;;;;8.70;4.85;;;27.00;84.40;;;;;;5026487;28;20592;-72
2021/06/16 12:26:00;;;;;;;8.32;4.82;;;27.00;84.10;;;;;;5030027;28;20132;-72
2021/06/16 12:28:27;;;;;;;10.98;4.80;;;27.10;84.10;;;;;;5033298;28;20500;-72
2021/06/16 12:30:56;;;;;;;5.73;4.10;;;27.10;84.20;;;;;;5028322;28;20106;-72
2021/06/16 12:33:40;;;;;;;7.13;4.40;;;27.20;84.30;;;;;;5043699;28;20335;-73
2021/06/16 12:36:17;;;;;;;31.63;5.25;;;27.20;84.20;;;;;;5043010;28;20144;-72
2021/06/16 12:39:03;;;;;;;9.00;4.65;;;27.40;84.30;;;;;;5044345;28;20400;-71
2021/06/16 12:41:38;;;;;;;8.40;4.75;;;27.40;84.30;;;;;;5026601;28;20056;-71
2021/06/16 12:44:21;;;;;;;9.45;4.97;;;27.40;83.90;;;;;;5029805;28;20634;-72
2021/06/16 12:46:52;;;;;;;9.65;5.32;;;27.40;81.80;;;;;;5032459;28;20052;-71
2021/06/16 12:49:20;;;;;;;9.40;5.68;;;27.40;81.80;;;;;;5043086;28;20453;-72
2021/06/16 12:52:04;;;;;;;6.30;4.53;;;27.40;83.10;;;;;;5030066;28;20073;-74
2021/06/16 12:54:32;;;;;;;7.38;4.18;;;27.50;82.40;;;;;;5030075;28;20551;-72
2021/06/16 12:57:14;;;;;;;8.23;4.90;;;27.60;83.90;;;;;;5021410;28;20111;-72
2021/06/16 12:59:51;;;;;;;8.90;5.32;;;27.60;83.00;;;;;;5016625;28;20049;-72
2021/06/16 13:02:25;;;;;;;9.87;5.30;;;27.70;83.10;;;;;;5028617;28;20866;-72
2021/06/16 13:04:58;;;;;;;11.52;5.88;;;27.70;83.40;;;;;;5030669;28;20048;-72
2021/06/16 13:07:49;;;;;;;9.38;4.63;;;27.70;83.20;;;;;;5025912;28;20069;-72